createdAt,value
2023-05-09T00:02:25.052Z,76.84
2023-05-09T00:04:54.509Z,77.12
2023-05-09T00:07:22.543Z,77.13
2023-05-09T00:09:50.692Z,76.89
2023-05-09T00:12:18.799Z,76.89
2023-05-09T00:14:48.166Z,77.08
2023-05-09T00:17:17.030Z,76.76
2023-05-09T00:19:45.363Z,76.96
2023-05-09T00:22:14.701Z,77.08
2023-05-09T00:24:42.858Z,76.82
2023-05-09T00:27:10.980Z,77.13
2023-05-09T00:29:39.288Z,77.34
2023-05-09T00:32:07.367Z,77.11
2023-05-09T00:34:35.501Z,77.03
2023-05-09T00:37:04.263Z,76.91
2023-05-09T00:39:33.694Z,77.04
2023-05-09T00:42:01.658Z,77.28
2023-05-09T00:44:29.736Z,77.39
2023-05-09T00:46:57.902Z,77.47
2023-05-09T00:49:25.982Z,77.54
2023-05-09T00:51:55.400Z,77.55
2023-05-09T00:54:23.499Z,77.68
2023-05-09T00:56:53.191Z,77.50
2023-05-09T00:59:21.932Z,77.24
2023-05-09T01:01:50.366Z,77.41
2023-05-09T01:04:18.743Z,77.17
2023-05-09T01:06:58.908Z,77.08
2023-05-09T01:09:44.496Z,76.95
2023-05-09T01:12:27.236Z,76.73
2023-05-09T01:15:04.784Z,77.28
2023-05-09T01:17:47.516Z,77.42
2023-05-09T01:20:24.497Z,77.61
2023-05-09T01:23:02.331Z,77.00
2023-05-09T01:25:48.707Z,77.15
2023-05-09T01:28:36.694Z,77.07
2023-05-09T01:31:09.209Z,77.21
2023-05-09T01:33:41.776Z,77.40
2023-05-09T01:36:17.104Z,77.32
2023-05-09T01:38:49.594Z,77.34
2023-05-09T01:41:20.788Z,77.34
2023-05-09T01:43:51.133Z,77.24
2023-05-09T01:46:23.692Z,77.19
2023-05-09T01:48:53.193Z,77.17
2023-05-09T01:51:22.334Z,76.94
2023-05-09T01:53:53.180Z,77.64
2023-05-09T01:56:23.296Z,77.37
2023-05-09T01:58:53.038Z,77.43
2023-05-09T02:01:23.929Z,77.36
2023-05-09T02:03:54.358Z,77.28
2023-05-09T02:06:25.296Z,77.73
2023-05-09T02:08:53.395Z,77.66
2023-05-09T02:11:21.399Z,77.75
2023-05-09T02:13:51.616Z,77.63
2023-05-09T02:16:27.848Z,77.31
2023-05-09T02:18:55.868Z,77.85
2023-05-09T02:21:23.996Z,77.56
2023-05-09T02:23:52.131Z,77.70
2023-05-09T02:26:20.982Z,77.60
2023-05-09T02:28:49.701Z,77.69
2023-05-09T02:31:22.649Z,77.42
2023-05-09T02:33:53.199Z,77.59
2023-05-09T02:36:22.026Z,77.65
2023-05-09T02:38:50.600Z,77.21
2023-05-09T02:41:18.652Z,77.29
2023-05-09T02:43:47.286Z,77.41
2023-05-09T02:46:16.956Z,77.00
2023-05-09T02:48:44.990Z,77.18
2023-05-09T02:51:14.416Z,77.02
2023-05-09T02:53:42.386Z,77.39
2023-05-09T02:56:10.910Z,77.41
2023-05-09T02:58:39.052Z,77.23
2023-05-09T03:01:07.191Z,77.38
2023-05-09T03:03:35.405Z,76.95
2023-05-09T03:06:06.300Z,76.95
2023-05-09T03:08:35.862Z,77.28
2023-05-09T03:11:04.462Z,77.16
2023-05-09T03:13:32.758Z,77.10
2023-05-09T03:16:00.776Z,77.65
2023-05-09T03:18:28.920Z,77.36
2023-05-09T03:20:56.966Z,77.53
2023-05-09T03:23:25.551Z,77.51
2023-05-09T03:25:55.384Z,77.64
2023-05-09T03:28:23.658Z,77.57
2023-05-09T03:30:51.807Z,77.23
2023-05-09T03:33:23.207Z,77.12
2023-05-09T03:35:51.552Z,77.49
2023-05-09T03:38:19.637Z,77.56
2023-05-09T03:40:47.653Z,77.44
2023-05-09T03:43:17.129Z,77.33
2023-05-09T03:45:45.395Z,77.34
2023-05-09T03:48:15.178Z,77.26
2023-05-09T03:50:48.296Z,77.59
2023-05-09T03:53:16.953Z,77.44
2023-05-09T03:55:47.152Z,77.39
2023-05-09T03:58:19.274Z,77.44
2023-05-09T04:00:47.527Z,77.45
2023-05-09T04:03:21.973Z,77.32
2023-05-09T04:05:52.225Z,77.70
2023-05-09T04:08:37.035Z,77.84
2023-05-09T04:11:06.214Z,77.85
2023-05-09T04:13:36.554Z,77.74
2023-05-09T04:16:11.050Z,77.69
2023-05-09T04:18:42.214Z,77.52
2023-05-09T04:21:10.672Z,77.58
2023-05-09T04:23:39.869Z,77.42
2023-05-09T04:26:09.653Z,77.19
2023-05-09T04:28:39.083Z,77.06
2023-05-09T04:31:08.136Z,76.86
2023-05-09T04:33:38.274Z,77.22
2023-05-09T04:36:07.823Z,77.40
2023-05-09T04:38:35.943Z,77.43
2023-05-09T04:41:07.130Z,77.43
2023-05-09T04:43:35.514Z,77.59
2023-05-09T04:46:05.110Z,77.40
2023-05-09T04:48:35.334Z,77.60
2023-05-09T04:51:03.581Z,77.51
2023-05-09T04:53:31.892Z,77.49
2023-05-09T04:56:00.344Z,77.45
2023-05-09T04:58:53.249Z,77.86
2023-05-09T05:01:27.897Z,77.74
2023-05-09T05:03:57.000Z,77.97
2023-05-09T05:06:26.241Z,77.87
2023-05-09T05:08:54.395Z,77.89
2023-05-09T05:11:22.479Z,77.86
2023-05-09T05:13:50.991Z,77.51
2023-05-09T05:16:19.086Z,77.57
2023-05-09T05:18:49.697Z,77.79
2023-05-09T05:21:18.949Z,77.71
2023-05-09T05:23:47.162Z,77.80
2023-05-09T05:26:16.316Z,77.95
2023-05-09T05:28:44.413Z,77.88
2023-05-09T05:31:13.840Z,77.90
2023-05-09T05:33:42.051Z,78.19
2023-05-09T05:36:13.320Z,78.15
2023-05-09T05:38:41.372Z,78.37
2023-05-09T05:44:06.597Z,78.15
2023-05-09T05:46:36.039Z,78.06
2023-05-09T05:49:04.289Z,78.17
2023-05-09T05:51:33.761Z,78.23
2023-05-09T05:54:02.670Z,78.14
2023-05-09T05:56:31.698Z,78.01
2023-05-09T05:58:59.919Z,77.94
2023-05-09T06:01:28.078Z,78.27
2023-05-09T06:03:56.232Z,77.79
2023-05-09T06:06:28.489Z,77.69
2023-05-09T06:08:58.336Z,77.38
2023-05-09T06:11:26.463Z,77.71
2023-05-09T06:13:54.512Z,77.48
2023-05-09T06:16:22.816Z,77.73
2023-05-09T06:18:53.440Z,77.95
2023-05-09T06:21:23.698Z,77.71
2023-05-09T06:24:07.874Z,77.35
2023-05-09T06:26:40.557Z,77.13
2023-05-09T06:29:08.709Z,77.18
2023-05-09T06:31:38.545Z,77.36
2023-05-09T06:34:07.284Z,77.42
2023-05-09T06:36:35.477Z,77.11
2023-05-09T06:39:03.544Z,77.25
2023-05-09T06:41:31.592Z,77.57
2023-05-09T06:44:02.392Z,77.72
2023-05-09T06:46:30.692Z,77.99
2023-05-09T06:49:01.613Z,78.36
2023-05-09T06:51:29.850Z,79.05
2023-05-09T06:53:58.070Z,78.75
2023-05-09T06:56:26.920Z,77.95
2023-05-09T06:58:55.076Z,77.64
2023-05-09T07:01:24.442Z,77.62
2023-05-09T07:03:53.595Z,77.44
2023-05-09T07:06:21.819Z,76.71
2023-05-09T07:08:49.807Z,76.78
2023-05-09T07:11:17.863Z,77.56
2023-05-09T07:13:46.697Z,78.23
2023-05-09T07:16:14.760Z,78.10
2023-05-09T07:18:44.175Z,78.26
2023-05-09T07:24:04.873Z,77.69
2023-05-09T07:26:32.887Z,77.67
2023-05-09T07:29:00.884Z,77.76
2023-05-09T07:31:29.383Z,77.45
2023-05-09T07:33:59.140Z,77.83
2023-05-09T07:36:27.161Z,77.75
2023-05-09T07:38:55.442Z,77.27
2023-05-09T07:41:23.561Z,77.17
2023-05-09T07:43:51.529Z,77.50
2023-05-09T07:46:19.561Z,76.57
2023-05-09T07:48:47.610Z,76.02
2023-05-09T07:51:16.915Z,76.93
2023-05-09T07:53:44.929Z,77.32
2023-05-09T07:56:13.406Z,76.91
2023-05-09T07:58:41.704Z,76.22
2023-05-09T08:01:09.743Z,76.31
2023-05-09T08:03:38.005Z,76.43
2023-05-09T08:06:06.309Z,76.56
2023-05-09T08:08:38.279Z,76.41
2023-05-09T08:11:07.211Z,75.63
2023-05-09T08:13:35.235Z,75.62
2023-05-09T08:16:03.547Z,75.48
2023-05-09T08:18:31.751Z,75.87
2023-05-09T08:20:59.956Z,76.43
2023-05-09T08:23:30.054Z,75.64
2023-05-09T08:25:59.557Z,75.48
2023-05-09T08:28:28.771Z,75.09
2023-05-09T08:30:58.066Z,74.79
2023-05-09T08:33:26.387Z,73.74
2023-05-09T08:35:54.877Z,73.36
2023-05-09T08:38:24.245Z,73.54
2023-05-09T08:40:52.289Z,74.15
2023-05-09T08:43:24.360Z,73.24
2023-05-09T08:45:55.698Z,73.70
2023-05-09T08:48:24.269Z,74.36
2023-05-09T08:50:52.979Z,74.13
2023-05-09T08:53:22.477Z,74.29
2023-05-09T08:55:50.940Z,74.32
2023-05-09T08:58:22.757Z,73.09
2023-05-09T09:00:51.436Z,72.56
2023-05-09T09:03:19.490Z,73.14
2023-05-09T09:05:49.189Z,72.03
2023-05-09T09:08:18.965Z,72.71
2023-05-09T09:10:48.304Z,73.00
2023-05-09T09:13:18.183Z,71.99
2023-05-09T09:15:51.508Z,70.51
2023-05-09T09:18:29.273Z,69.98
2023-05-09T09:21:27.872Z,69.27
2023-05-09T09:23:56.887Z,69.31
2023-05-09T09:26:29.115Z,68.04
2023-05-09T09:28:57.785Z,67.08
2023-05-09T09:31:33.303Z,67.32
2023-05-09T09:34:02.497Z,66.76
2023-05-09T09:36:32.957Z,66.88
2023-05-09T09:39:04.693Z,66.87
2023-05-09T09:41:33.859Z,65.64
2023-05-09T09:44:08.693Z,64.92
2023-05-09T09:46:46.132Z,64.68
2023-05-09T09:49:16.187Z,64.88
2023-05-09T09:51:45.223Z,65.28
2023-05-09T09:54:14.164Z,65.14
2023-05-09T09:56:45.070Z,65.03
2023-05-09T10:02:07.670Z,64.51
2023-05-09T10:04:39.065Z,65.63
2023-05-09T10:07:14.370Z,65.44
2023-05-09T10:09:43.908Z,65.47
2023-05-09T10:12:14.553Z,65.47
2023-05-09T10:14:44.375Z,65.26
2023-05-09T10:17:17.331Z,65.47
2023-05-09T10:19:48.052Z,66.20
2023-05-09T10:22:17.805Z,66.56
2023-05-09T10:24:52.519Z,67.00
2023-05-09T10:27:27.453Z,66.88
2023-05-09T10:30:04.836Z,66.87
2023-05-09T10:32:49.298Z,67.64
2023-05-09T10:35:20.377Z,65.82
2023-05-09T10:37:49.503Z,65.47
2023-05-09T10:40:19.818Z,64.94
2023-05-09T10:42:49.352Z,64.71
2023-05-09T10:45:17.627Z,64.51
2023-05-09T10:47:50.726Z,63.40
2023-05-09T10:50:19.551Z,62.18
2023-05-09T10:53:14.259Z,63.29
2023-05-09T10:55:52.202Z,62.89
2023-05-09T10:58:23.350Z,62.86
2023-05-09T11:00:54.654Z,60.71
2023-05-09T11:03:25.859Z,60.21
2023-05-09T11:05:56.191Z,61.27
2023-05-09T11:08:27.021Z,60.83
2023-05-09T11:10:56.701Z,61.44
2023-05-09T11:13:27.331Z,60.23
2023-05-09T11:16:12.358Z,60.46
2023-05-09T11:18:54.520Z,58.19
2023-05-09T11:21:22.814Z,60.16
2023-05-09T11:23:53.814Z,57.88
2023-05-09T11:26:29.644Z,57.34
2023-05-09T11:29:02.676Z,56.29
2023-05-09T11:31:30.867Z,54.94
2023-05-09T11:34:06.386Z,54.06
2023-05-09T11:36:34.803Z,54.28
2023-05-09T11:39:08.481Z,55.07
2023-05-09T11:41:46.672Z,55.28
2023-05-09T11:44:21.312Z,55.97
2023-05-09T11:46:51.072Z,56.33
2023-05-09T11:49:20.888Z,55.85
2023-05-09T11:51:49.125Z,54.36
2023-05-09T11:54:17.313Z,54.23
2023-05-09T11:56:46.411Z,53.83
2023-05-09T11:59:15.840Z,54.41
2023-05-09T12:01:43.977Z,54.79
2023-05-09T12:04:12.206Z,56.18
2023-05-09T12:06:41.753Z,55.83
2023-05-09T12:09:11.181Z,55.52
2023-05-09T12:11:40.278Z,54.66
2023-05-09T12:14:08.340Z,55.34
2023-05-09T12:16:36.423Z,55.19
2023-05-09T12:19:05.440Z,55.74
2023-05-09T12:21:33.584Z,55.69
2023-05-09T12:24:06.316Z,57.49
2023-05-09T12:26:35.143Z,56.91
2023-05-09T12:29:05.654Z,58.49
2023-05-09T12:31:33.856Z,56.35
2023-05-09T12:34:02.766Z,55.50
2023-05-09T12:36:36.973Z,53.42
2023-05-09T12:39:15.473Z,53.56
2023-05-09T12:41:57.894Z,53.06
2023-05-09T12:44:30.029Z,52.72
2023-05-09T12:47:00.766Z,53.18
2023-05-09T12:49:30.361Z,53.87
2023-05-09T12:52:02.968Z,53.52
2023-05-09T12:54:33.979Z,53.38
2023-05-09T12:57:04.383Z,52.74
2023-05-09T12:59:33.320Z,52.24
2023-05-09T13:02:02.113Z,53.33
2023-05-09T13:04:30.348Z,54.80
2023-05-09T13:06:59.956Z,54.50
2023-05-09T13:09:28.585Z,54.00
2023-05-09T13:11:57.925Z,53.24
2023-05-09T13:14:26.348Z,53.82
2023-05-09T13:16:55.011Z,55.30
2023-05-09T13:19:23.034Z,55.46
2023-05-09T13:21:52.293Z,54.14
2023-05-09T13:24:20.418Z,54.64
2023-05-09T13:26:48.413Z,54.39
2023-05-09T13:29:17.934Z,53.57
2023-05-09T13:31:46.109Z,55.37
2023-05-09T13:34:14.251Z,54.98
2023-05-09T13:36:42.229Z,54.40
2023-05-09T13:39:10.306Z,54.92
2023-05-09T13:41:38.430Z,54.71
2023-05-09T13:44:06.454Z,55.17
2023-05-09T13:46:36.020Z,54.77
2023-05-09T13:49:04.372Z,55.36
2023-05-09T13:51:32.598Z,55.33
2023-05-09T13:54:00.722Z,56.39
2023-05-09T13:56:28.774Z,56.97
2023-05-09T13:58:56.950Z,55.70
2023-05-09T14:01:25.388Z,56.47
2023-05-09T14:03:54.770Z,55.69
2023-05-09T14:06:22.801Z,55.28
2023-05-09T14:08:50.880Z,53.93
2023-05-09T14:11:18.940Z,52.65
2023-05-09T14:13:47.179Z,53.34
2023-05-09T14:16:15.286Z,53.32
2023-05-09T14:18:43.372Z,53.76
2023-05-09T14:21:12.963Z,54.19
2023-05-09T14:23:41.213Z,54.60
2023-05-09T14:26:09.332Z,53.81
2023-05-09T14:28:38.187Z,51.43
2023-05-09T14:31:06.295Z,50.85
2023-05-09T14:33:36.016Z,51.26
2023-05-09T14:36:06.025Z,52.84
2023-05-09T14:38:37.140Z,53.28
2023-05-09T14:41:06.840Z,52.76
2023-05-09T14:43:34.954Z,52.15
2023-05-09T14:46:06.572Z,51.92
2023-05-09T14:48:34.758Z,51.61
2023-05-09T14:51:03.161Z,50.89
2023-05-09T14:53:40.976Z,51.08
2023-05-09T14:56:11.282Z,52.55
2023-05-09T14:58:39.561Z,53.61
2023-05-09T15:01:07.636Z,55.36
2023-05-09T15:03:35.715Z,56.94
2023-05-09T15:06:03.887Z,56.95
2023-05-09T15:08:32.005Z,58.10
2023-05-09T15:11:01.320Z,58.82
2023-05-09T15:13:29.537Z,58.43
2023-05-09T15:15:57.712Z,58.75
2023-05-09T15:18:28.478Z,58.82
2023-05-09T15:20:56.852Z,58.50
2023-05-09T15:23:24.941Z,57.72
2023-05-09T15:25:52.971Z,57.79
2023-05-09T15:28:22.419Z,56.78
2023-05-09T15:30:50.551Z,57.38
2023-05-09T15:33:18.645Z,57.82
2023-05-09T15:35:46.852Z,57.92
2023-05-09T15:38:15.379Z,57.47
2023-05-09T15:40:43.545Z,57.09
2023-05-09T15:43:12.901Z,56.86
2023-05-09T15:45:45.545Z,57.68
2023-05-09T15:48:14.021Z,58.46
2023-05-09T15:50:43.301Z,58.47
2023-05-09T15:53:11.791Z,59.08
2023-05-09T15:55:40.061Z,58.94
2023-05-09T15:58:08.535Z,58.81
2023-05-09T16:00:36.771Z,58.79
2023-05-09T16:03:06.608Z,59.43
2023-05-09T16:05:34.770Z,59.61
2023-05-09T16:08:02.937Z,59.66
2023-05-09T16:10:31.577Z,59.86
2023-05-09T16:12:59.755Z,60.08
2023-05-09T16:15:27.851Z,59.60
2023-05-09T16:17:55.868Z,59.27
2023-05-09T16:20:25.264Z,59.45
2023-05-09T16:22:53.324Z,60.27
2023-05-09T16:25:21.438Z,60.44
2023-05-09T16:27:49.550Z,59.94
2023-05-09T16:30:17.998Z,59.56
2023-05-09T16:32:46.684Z,59.59
2023-05-09T16:35:14.837Z,59.37
2023-05-09T16:37:44.361Z,59.13
2023-05-09T16:40:15.008Z,59.16
2023-05-09T16:42:43.250Z,59.62
2023-05-09T16:45:12.018Z,60.10
2023-05-09T16:47:40.059Z,60.08
2023-05-09T16:50:10.470Z,61.40
2023-05-09T16:52:38.748Z,60.12
2023-05-09T16:55:09.550Z,60.51
2023-05-09T16:57:37.602Z,60.45
2023-05-09T17:00:08.060Z,60.08
2023-05-09T17:02:37.083Z,59.98
2023-05-09T17:05:05.901Z,60.91
2023-05-09T17:07:34.055Z,62.82
2023-05-09T17:10:03.447Z,64.33
2023-05-09T17:12:32.881Z,65.53
2023-05-09T17:15:01.057Z,65.72
2023-05-09T17:17:29.132Z,65.35
2023-05-09T17:19:57.666Z,65.97
2023-05-09T17:22:26.778Z,66.55
2023-05-09T17:24:54.904Z,66.76
2023-05-09T17:27:23.024Z,66.82
2023-05-09T17:29:52.423Z,66.75
2023-05-09T17:32:20.558Z,67.42
2023-05-09T17:34:48.590Z,67.37
2023-05-09T17:37:16.948Z,67.49
2023-05-09T17:39:45.127Z,67.73
2023-05-09T17:42:13.248Z,68.06
2023-05-09T17:44:42.510Z,67.06
2023-05-09T17:47:14.261Z,67.13
2023-05-09T17:49:42.635Z,67.88
2023-05-09T17:52:10.638Z,68.19
2023-05-09T17:54:38.663Z,68.15
2023-05-09T17:57:06.795Z,68.54
2023-05-09T17:59:34.823Z,69.09
2023-05-09T18:02:03.027Z,69.10
2023-05-09T18:04:34.228Z,69.08
2023-05-09T18:07:02.553Z,69.32
2023-05-09T18:09:30.960Z,69.34
2023-05-09T18:11:59.393Z,70.04
2023-05-09T18:14:28.394Z,70.45
2023-05-09T18:16:57.349Z,70.11
2023-05-09T18:19:25.387Z,70.72
2023-05-09T18:21:54.710Z,71.09
2023-05-09T18:24:23.199Z,70.88
2023-05-09T18:26:51.330Z,71.44
2023-05-09T18:29:19.556Z,71.27
2023-05-09T18:31:47.808Z,71.40
2023-05-09T18:34:15.886Z,71.42
2023-05-09T18:36:43.881Z,71.89
2023-05-09T18:39:15.045Z,72.13
2023-05-09T18:41:43.476Z,72.46
2023-05-09T18:44:13.265Z,72.25
2023-05-09T18:46:41.541Z,71.92
2023-05-09T18:49:09.740Z,71.94
2023-05-09T18:51:37.824Z,71.61
2023-05-09T18:54:08.098Z,72.21
2023-05-09T18:56:39.357Z,72.53
2023-05-09T18:59:09.326Z,72.60
2023-05-09T19:01:37.872Z,73.04
2023-05-09T19:04:06.981Z,72.57
2023-05-09T19:06:35.192Z,73.09
2023-05-09T19:09:04.257Z,72.89
2023-05-09T19:11:32.358Z,73.41
2023-05-09T19:14:02.108Z,73.34
2023-05-09T19:16:30.443Z,73.41
2023-05-09T19:19:00.281Z,73.40
2023-05-09T19:21:28.997Z,72.72
2023-05-09T19:23:57.129Z,73.05
2023-05-09T19:26:25.164Z,73.43
2023-05-09T19:28:53.652Z,73.18
2023-05-09T19:31:25.390Z,73.54
2023-05-09T19:33:53.619Z,73.40
2023-05-09T19:36:21.598Z,72.95
2023-05-09T19:38:49.668Z,73.54
2023-05-09T19:41:17.993Z,73.61
2023-05-09T19:43:46.525Z,73.56
2023-05-09T19:46:14.579Z,73.69
2023-05-09T19:48:44.034Z,73.79
2023-05-09T19:51:14.054Z,73.61
2023-05-09T19:53:42.091Z,73.68
2023-05-09T19:56:10.307Z,74.03
2023-05-09T19:58:38.468Z,73.82
2023-05-09T20:01:07.163Z,73.95
2023-05-09T20:03:36.951Z,74.01
2023-05-09T20:06:07.674Z,73.95
2023-05-09T20:08:35.780Z,74.45
2023-05-09T20:11:29.021Z,73.88
2023-05-09T20:13:57.636Z,74.76
2023-05-09T20:16:25.790Z,74.02
2023-05-09T20:18:55.167Z,74.62
2023-05-09T20:21:26.987Z,74.71
2023-05-09T20:23:55.029Z,74.56
2023-05-09T20:26:25.089Z,74.41
2023-05-09T20:28:54.437Z,74.64
2023-05-09T20:31:22.488Z,74.49
2023-05-09T20:33:51.410Z,74.38
2023-05-09T20:36:20.284Z,74.33
2023-05-09T20:38:49.666Z,74.30
2023-05-09T20:41:17.734Z,74.19
2023-05-09T20:43:45.794Z,74.06
2023-05-09T20:46:14.403Z,74.34
2023-05-09T20:48:42.645Z,74.05
2023-05-09T20:51:10.788Z,74.08
2023-05-09T20:53:38.819Z,73.90
2023-05-09T20:56:08.482Z,73.58
2023-05-09T20:58:36.481Z,73.71
2023-05-09T21:01:04.681Z,73.67
2023-05-09T21:03:32.691Z,73.75
2023-05-09T21:06:00.667Z,73.68
2023-05-09T21:08:28.810Z,73.86
2023-05-09T21:10:57.010Z,73.50
2023-05-09T21:13:26.530Z,73.40
2023-05-09T21:15:54.622Z,73.91
2023-05-09T21:18:22.610Z,74.41
2023-05-09T21:20:50.835Z,74.20
2023-05-09T21:23:19.380Z,74.01
2023-05-09T21:25:47.364Z,74.18
2023-05-09T21:28:15.845Z,74.74
2023-05-09T21:30:45.226Z,74.88
2023-05-09T21:33:13.255Z,74.67
2023-05-09T21:35:41.286Z,74.79
2023-05-09T21:38:09.565Z,75.04
2023-05-09T21:40:37.708Z,75.22
2023-05-09T21:43:05.775Z,75.16
2023-05-09T21:45:34.256Z,75.40
2023-05-09T21:48:03.774Z,75.71
2023-05-09T21:50:31.809Z,76.05
2023-05-09T21:53:00.395Z,76.38
2023-05-09T21:55:29.264Z,76.31
2023-05-09T21:57:57.206Z,76.44
2023-05-09T22:00:25.491Z,76.89
2023-05-09T22:02:53.631Z,77.15
2023-05-09T22:05:24.222Z,76.51
2023-05-09T22:07:52.581Z,76.60
2023-05-09T22:10:20.819Z,76.58
2023-05-09T22:12:48.900Z,76.20
2023-05-09T22:15:17.107Z,76.49
2023-05-09T22:17:45.187Z,76.30
2023-05-09T22:20:13.863Z,76.50
2023-05-09T22:22:43.370Z,76.59
2023-05-09T22:25:11.724Z,76.58
2023-05-09T22:27:39.809Z,76.66
2023-05-09T22:30:12.143Z,76.49
2023-05-09T22:32:40.381Z,76.47
2023-05-09T22:35:09.707Z,76.50
2023-05-09T22:37:37.867Z,76.26
2023-05-09T22:40:09.397Z,76.20
2023-05-09T22:42:37.676Z,76.29
2023-05-09T22:45:07.335Z,76.41
2023-05-09T22:47:35.443Z,76.57
2023-05-09T22:50:04.007Z,76.59
2023-05-09T22:52:32.076Z,76.90
2023-05-09T22:55:00.205Z,76.66
2023-05-09T22:57:29.637Z,76.75
2023-05-09T22:59:57.678Z,76.85
2023-05-09T23:02:26.665Z,76.49
2023-05-09T23:04:54.677Z,76.59
2023-05-09T23:07:22.677Z,76.35
2023-05-09T23:09:50.675Z,76.59
2023-05-09T23:12:18.812Z,76.74
2023-05-09T23:14:48.276Z,76.74
2023-05-09T23:17:16.347Z,76.74
2023-05-09T23:19:44.507Z,77.16
2023-05-09T23:22:12.734Z,76.75
2023-05-09T23:24:41.223Z,76.66
2023-05-09T23:27:09.442Z,76.82
2023-05-09T23:29:37.410Z,77.16
2023-05-09T23:32:06.889Z,77.49
2023-05-09T23:34:36.294Z,76.59
2023-05-09T23:37:04.618Z,76.04
2023-05-09T23:39:32.924Z,76.00
2023-05-09T23:42:00.898Z,75.98
2023-05-09T23:44:29.018Z,75.77
2023-05-09T23:46:57.358Z,75.40
2023-05-09T23:49:27.175Z,75.45
2023-05-09T23:51:55.339Z,76.18
2023-05-09T23:54:24.311Z,76.06
2023-05-09T23:56:52.318Z,76.21
2023-05-09T23:59:20.365Z,76.24
